createdAt,value
2019-04-05T16:12:19.865Z,94.60
2019-04-05T16:14:48.434Z,92.10
2019-04-05T16:17:16.996Z,92.00
2019-04-05T16:19:45.727Z,92.20
2019-04-05T16:22:14.223Z,91.60
2019-04-05T16:24:42.821Z,91.60
2019-04-05T16:27:11.376Z,92.10
2019-04-05T16:29:39.947Z,92.30
2019-04-05T16:32:08.531Z,92.50
2019-04-05T16:34:37.164Z,92.80
2019-04-05T16:37:06.054Z,92.30
2019-04-05T16:39:34.631Z,92.00
2019-04-05T16:42:03.222Z,92.80
2019-04-05T16:44:31.786Z,93.60
2019-04-05T16:47:00.380Z,92.80
2019-04-05T16:49:28.926Z,93.60
2019-04-05T16:51:57.514Z,93.50
2019-04-05T16:54:26.089Z,93.60
2019-04-05T16:56:54.694Z,94.10
2019-04-05T16:59:23.257Z,94.30
2019-04-05T17:01:51.799Z,94.50
2019-04-05T17:04:20.377Z,94.30
2019-04-05T17:06:49.003Z,94.20
2019-04-05T17:09:18.205Z,92.20
2019-04-05T17:11:47.042Z,92.40
2019-04-05T17:14:15.685Z,92.30
2019-04-05T17:16:44.235Z,91.80
2019-04-05T17:19:12.883Z,91.40
2019-04-05T17:21:41.477Z,91.80
2019-04-05T17:24:10.049Z,92.40
2019-04-05T17:26:38.603Z,92.20
2019-04-05T17:29:07.274Z,92.20
2019-04-05T17:31:35.811Z,92.30
2019-04-05T17:34:16.495Z,92.30
2019-04-05T17:36:45.049Z,91.90
2019-04-05T17:39:13.644Z,92.30
2019-04-05T17:41:42.296Z,92.60
2019-04-05T17:44:10.962Z,93.00
2019-04-05T17:46:40.268Z,92.90
2019-04-05T17:49:08.813Z,92.90
2019-04-05T17:51:37.392Z,92.60
2019-04-05T17:54:06.115Z,93.00
2019-04-05T17:56:35.356Z,92.90
2019-04-05T17:59:04.504Z,93.10
2019-04-05T18:01:33.143Z,92.60
2019-04-05T18:04:01.703Z,92.80
2019-04-05T18:06:30.347Z,93.00
2019-04-05T18:08:59.256Z,92.50
2019-04-05T18:11:27.851Z,92.50
2019-04-05T18:13:56.870Z,92.50
2019-04-05T18:16:25.395Z,92.40
2019-04-05T18:18:54.139Z,92.70
2019-04-05T18:21:22.690Z,92.10
2019-04-05T18:23:51.934Z,92.30
2019-04-05T18:26:20.506Z,92.20
2019-04-05T18:28:50.547Z,93.00
2019-04-05T18:31:20.279Z,92.50
2019-04-05T18:33:48.847Z,92.70
2019-04-05T18:36:17.498Z,92.40
2019-04-05T18:38:46.071Z,92.40
2019-04-05T18:41:14.768Z,92.10
2019-04-05T18:43:43.414Z,91.90
2019-04-05T18:46:12.519Z,92.00
2019-04-05T18:48:41.067Z,92.50
2019-04-05T18:51:10.008Z,92.40
2019-04-05T18:53:38.583Z,91.70
2019-04-05T18:56:07.176Z,91.50
2019-04-05T18:58:36.705Z,91.60
2019-04-05T19:01:05.362Z,91.90
2019-04-05T19:03:33.843Z,91.90
2019-04-05T19:06:02.416Z,92.10
2019-04-05T19:08:39.536Z,92.00
2019-04-05T19:11:01.294Z,91.70
2019-04-05T19:13:29.878Z,91.60
2019-04-05T19:15:58.431Z,91.80
2019-04-05T19:18:27.053Z,91.80
2019-04-05T19:20:55.559Z,91.80
2019-04-05T19:23:24.111Z,91.80
2019-04-05T19:25:52.683Z,91.50
2019-04-05T19:28:21.244Z,91.40
2019-04-05T19:50:52.587Z,91.70
2019-04-05T19:53:21.234Z,91.90
2019-04-05T19:55:50.135Z,92.20
2019-04-05T19:58:18.708Z,92.30
2019-04-05T20:00:47.260Z,92.50
2019-04-05T20:03:16.331Z,91.70
2019-04-05T20:05:44.916Z,91.50
2019-04-05T20:08:13.468Z,91.90
2019-04-05T20:10:42.093Z,92.10
2019-04-05T20:13:10.668Z,92.50
2019-04-05T20:15:39.257Z,92.10
2019-04-05T20:18:07.806Z,91.90
2019-04-05T20:20:36.457Z,92.00
2019-04-05T20:23:05.004Z,92.10
2019-04-05T20:25:33.596Z,91.70
2019-04-05T20:28:02.152Z,91.60
2019-04-05T20:30:30.826Z,91.60
2019-04-05T20:32:59.340Z,91.90
2019-04-05T20:35:27.907Z,92.00
2019-04-05T20:37:56.462Z,91.90
2019-04-05T20:40:25.043Z,91.60
2019-04-05T20:42:53.752Z,91.30
2019-04-05T20:45:22.349Z,91.20
2019-04-05T20:47:50.915Z,91.10
2019-04-05T20:50:19.503Z,91.40
2019-04-05T20:52:48.075Z,91.10
2019-04-05T20:55:16.706Z,90.90
2019-04-05T20:57:45.284Z,91.20
2019-04-05T21:00:14.443Z,91.00
2019-04-05T21:02:43.026Z,91.40
2019-04-05T21:05:11.579Z,91.40
2019-04-05T21:07:40.218Z,91.60
2019-04-05T21:10:09.316Z,91.60
2019-04-05T21:12:37.883Z,91.80
2019-04-05T21:15:07.343Z,91.90
2019-04-05T21:17:35.937Z,92.00
2019-04-05T21:20:06.535Z,92.00
2019-04-05T21:22:35.078Z,92.00
2019-04-05T21:25:04.790Z,92.40
2019-04-05T21:27:33.344Z,92.40
2019-04-05T21:30:01.932Z,92.30
2019-04-05T21:32:30.535Z,92.10
2019-04-05T21:34:59.120Z,92.20
2019-04-05T21:37:27.671Z,92.30
2019-04-05T21:39:56.251Z,92.90
2019-04-05T21:42:24.873Z,92.80
2019-04-05T21:44:53.458Z,92.80
2019-04-05T21:47:22.184Z,92.00
2019-04-05T21:49:50.775Z,92.40
2019-04-05T21:52:19.333Z,92.90
2019-04-05T21:54:48.060Z,92.90
2019-04-05T21:57:16.668Z,94.20
2019-04-05T21:59:45.511Z,94.40
2019-04-05T22:02:14.223Z,94.20
2019-04-05T22:04:42.789Z,94.30
2019-04-05T22:07:11.446Z,94.20
2019-04-05T22:09:39.991Z,94.30
2019-04-05T22:12:08.571Z,94.30
2019-04-05T22:14:37.119Z,94.40
2019-04-05T22:17:05.695Z,94.30
2019-04-05T22:19:34.339Z,94.30
2019-04-05T22:22:02.932Z,94.40
2019-04-05T22:24:31.807Z,94.30
2019-04-05T22:27:00.383Z,94.60
2019-04-05T22:29:29.035Z,94.40
2019-04-05T22:31:57.595Z,94.70
2019-04-05T22:34:26.167Z,95.40
2019-04-05T22:36:54.742Z,95.30
2019-04-05T22:39:23.541Z,95.30
2019-04-05T22:41:52.063Z,94.80
2019-04-05T22:44:20.635Z,95.00
2019-04-05T22:46:49.270Z,94.80
2019-04-05T22:49:17.824Z,95.00
2019-04-05T22:51:47.129Z,95.10
2019-04-05T22:54:15.726Z,95.10
2019-04-05T22:56:44.288Z,95.20
2019-04-05T22:59:12.903Z,95.90
2019-04-05T23:01:41.428Z,95.80
2019-04-05T23:04:10.062Z,95.60
2019-04-05T23:06:38.606Z,95.50
2019-04-05T23:09:07.332Z,95.60
2019-04-05T23:11:35.914Z,96.00
2019-04-05T23:14:04.525Z,96.10
2019-04-05T23:16:33.099Z,96.30
2019-04-05T23:19:01.651Z,96.30
2019-04-05T23:21:30.223Z,97.00
2019-04-05T23:23:58.779Z,96.60
2019-04-05T23:26:28.938Z,97.90
2019-04-05T23:28:57.682Z,98.20
2019-04-05T23:31:26.255Z,98.30
2019-04-05T23:33:54.811Z,98.60
2019-04-05T23:36:23.367Z,98.90
2019-04-05T23:38:51.938Z,98.90
2019-04-05T23:41:20.493Z,98.90
2019-04-05T23:43:49.355Z,99.30
2019-04-05T23:46:17.898Z,99.50
2019-04-05T23:48:46.479Z,99.70
2019-04-05T23:51:15.059Z,99.90
2019-04-05T23:53:44.100Z,99.90
2019-04-05T23:56:12.661Z,99.90
2019-04-05T23:58:41.208Z,99.90
